Time;durP1;ratioP1;P1;durP2;ratioP2;P2;SDS_P1;SDS_P2;PMS_P1;PMS_P2;Temp;Humidity;BMP_temperature;BMP_pressure;BME280_temperature;BME280_humidity;BME280_pressure;Samples;Min_cycle;Max_cycle;Signal;HPM_P1;HPM_P2
2021/07/11 00:00:31;;;;;;;10.40;8.50;;;17.10;99.90;;;;;;4440223;28;657567;-69
2021/07/11 00:03:20;;;;;;;13.73;9.00;;;17.20;99.90;;;;;;4439772;28;657570;-71
2021/07/11 00:06:09;;;;;;;12.93;9.13;;;17.10;99.90;;;;;;4444204;28;658449;-70
2021/07/11 00:09:00;;;;;;;14.83;8.23;;;17.10;99.90;;;;;;4419554;28;658713;-70
2021/07/11 00:11:49;;;;;;;11.57;8.63;;;17.10;99.90;;;;;;4423440;28;657888;-70
2021/07/11 00:14:41;;;;;;;12.30;8.17;;;17.10;99.90;;;;;;4429265;28;658008;-70
2021/07/11 00:17:30;;;;;;;11.90;8.20;;;17.00;99.90;;;;;;4425106;28;657466;-70
2021/07/11 00:20:19;;;;;;;12.43;8.70;;;17.00;99.90;;;;;;4425158;28;658370;-70
2021/07/11 00:23:08;;;;;;;11.40;8.43;;;17.00;99.90;;;;;;4429212;28;658083;-70
2021/07/11 00:25:58;;;;;;;16.27;8.67;;;17.00;99.90;;;;;;4426680;28;657693;-70
2021/07/11 00:28:46;;;;;;;18.17;8.70;;;16.90;99.90;;;;;;4424398;28;659175;-70
2021/07/11 00:31:36;;;;;;;11.40;8.40;;;16.90;99.90;;;;;;4428207;28;657565;-71
2021/07/11 00:34:28;;;;;;;10.97;8.83;;;16.90;99.90;;;;;;4444949;28;657617;-70
2021/07/11 00:37:17;;;;;;;16.23;9.17;;;16.80;99.90;;;;;;4402203;28;658189;-70
2021/07/11 00:40:07;;;;;;;16.57;8.67;;;16.80;99.90;;;;;;4423538;28;657652;-71
2021/07/11 00:42:57;;;;;;;12.83;9.53;;;16.80;99.90;;;;;;4428069;28;657718;-70
2021/07/11 00:45:48;;;;;;;13.20;8.43;;;16.80;99.90;;;;;;4429218;28;657755;-71
2021/07/11 00:48:37;;;;;;;16.43;8.97;;;16.80;99.90;;;;;;4423404;28;658195;-70
2021/07/11 00:51:27;;;;;;;15.53;9.07;;;16.70;99.90;;;;;;4428349;28;657677;-71
2021/07/11 00:54:18;;;;;;;12.83;9.63;;;16.70;99.90;;;;;;4428839;28;657799;-71
2021/07/11 00:57:08;;;;;;;16.00;9.83;;;16.70;99.90;;;;;;4428841;28;657972;-71
2021/07/11 00:59:58;;;;;;;14.00;9.77;;;16.70;99.90;;;;;;4428734;28;657988;-70
2021/07/11 01:02:55;;;;;;;12.37;8.93;;;16.70;99.90;;;;;;4421859;28;657802;-71
2021/07/11 01:05:44;;;;;;;13.73;9.20;;;16.60;99.90;;;;;;4423781;28;657868;-71
2021/07/11 01:08:39;;;;;;;11.30;9.30;;;16.60;99.90;;;;;;4421346;28;658089;-69
2021/07/11 01:11:27;;;;;;;13.10;9.17;;;16.60;99.90;;;;;;4401184;28;658644;-70
2021/07/11 01:14:16;;;;;;;13.63;9.37;;;16.60;99.90;;;;;;4427747;28;657880;-71
2021/07/11 01:17:09;;;;;;;16.40;9.70;;;16.50;99.90;;;;;;4438326;28;658103;-71
2021/07/11 01:20:05;;;;;;;12.60;10.10;;;16.50;99.90;;;;;;4423452;28;658536;-70
2021/07/11 01:22:54;;;;;;;14.73;9.90;;;16.50;99.90;;;;;;4426522;28;659105;-70
2021/07/11 01:25:45;;;;;;;18.87;9.77;;;16.40;99.90;;;;;;4424153;28;657964;-70
2021/07/11 01:28:35;;;;;;;15.77;9.77;;;16.40;99.90;;;;;;4423717;28;657581;-70
2021/07/11 01:31:24;;;;;;;11.03;9.03;;;16.50;99.90;;;;;;4419356;28;657908;-70
2021/07/11 01:34:13;;;;;;;13.65;9.60;;;16.40;99.90;;;;;;4428595;28;658902;-70
2021/07/11 01:37:03;;;;;;;13.87;9.47;;;16.40;99.90;;;;;;4424338;28;658055;-70
2021/07/11 01:39:52;;;;;;;13.27;9.63;;;16.40;99.90;;;;;;4418008;28;657620;-71
2021/07/11 01:42:43;;;;;;;12.88;9.32;;;16.40;99.90;;;;;;4435181;28;658002;-71
2021/07/11 01:45:32;;;;;;;13.57;9.70;;;16.40;99.90;;;;;;4428717;28;658282;-71
2021/07/11 01:48:23;;;;;;;13.77;10.13;;;16.30;99.90;;;;;;4428194;28;657600;-71
2021/07/11 01:51:12;;;;;;;16.80;9.93;;;16.40;99.90;;;;;;4421817;28;658820;-71
2021/07/11 01:54:01;;;;;;;13.80;9.97;;;16.40;99.90;;;;;;4428024;28;657212;-71
2021/07/11 01:56:51;;;;;;;13.30;9.57;;;16.40;99.90;;;;;;4433454;28;657278;-71
2021/07/11 01:59:41;;;;;;;13.63;9.73;;;16.40;99.90;;;;;;4443460;28;657898;-71
2021/07/11 02:02:31;;;;;;;12.70;10.17;;;16.40;99.90;;;;;;4413281;28;657902;-71
2021/07/11 02:05:24;;;;;;;17.17;10.30;;;16.40;99.90;;;;;;4430616;28;658874;-71
2021/07/11 02:08:13;;;;;;;12.67;9.80;;;16.40;99.90;;;;;;4415731;28;659953;-70
2021/07/11 02:11:01;;;;;;;13.10;9.80;;;16.40;99.90;;;;;;4428089;28;657669;-71
2021/07/11 02:13:52;;;;;;;12.77;10.13;;;16.40;99.90;;;;;;4428720;28;657459;-72
2021/07/11 02:16:44;;;;;;;13.53;9.50;;;16.40;99.90;;;;;;4426638;28;659063;-71
2021/07/11 02:19:36;;;;;;;13.13;10.03;;;16.40;99.90;;;;;;4427341;28;659104;-70
2021/07/11 02:22:26;;;;;;;13.07;10.23;;;16.40;99.90;;;;;;4425547;28;658976;-71
2021/07/11 02:25:18;;;;;;;14.43;10.27;;;16.40;99.90;;;;;;4445834;28;658830;-70
2021/07/11 02:28:06;;;;;;;14.73;10.53;;;16.40;99.90;;;;;;4423846;28;658564;-71
2021/07/11 02:31:00;;;;;;;13.83;10.40;;;16.40;99.90;;;;;;4426809;28;659040;-71
2021/07/11 02:33:49;;;;;;;15.37;10.60;;;16.40;99.90;;;;;;4425795;28;659075;-71
2021/07/11 02:36:37;;;;;;;11.70;10.10;;;16.40;99.90;;;;;;4411823;28;659114;-71
2021/07/11 02:39:25;;;;;;;14.13;10.57;;;16.40;99.90;;;;;;4429832;28;658804;-71
2021/07/11 02:43:01;;;;;;;13.32;10.05;;;16.40;99.90;;;;;;4452940;28;659410;-70
2021/07/11 02:45:49;;;;;;;14.13;10.90;;;16.40;99.90;;;;;;4411000;28;659100;-72
2021/07/11 02:48:37;;;;;;;12.17;9.57;;;16.40;99.90;;;;;;4452848;28;659659;-71
2021/07/11 02:51:26;;;;;;;12.33;10.27;;;16.40;99.90;;;;;;4429786;28;657192;-71
2021/07/11 02:54:17;;;;;;;12.20;9.70;;;16.40;99.90;;;;;;4431426;28;658408;-71
2021/07/11 02:57:05;;;;;;;13.03;10.70;;;16.40;99.90;;;;;;4430359;28;657601;-71
2021/07/11 02:59:53;;;;;;;16.80;9.80;;;16.40;99.90;;;;;;4451887;28;659214;-70
2021/07/11 03:02:41;;;;;;;13.17;10.03;;;16.40;99.90;;;;;;4429706;28;658187;-70
2021/07/11 03:05:29;;;;;;;12.97;10.33;;;16.50;99.90;;;;;;4439911;28;658801;-72
2021/07/11 03:08:18;;;;;;;12.33;10.00;;;16.40;99.90;;;;;;4440056;28;659788;-71
2021/07/11 03:11:06;;;;;;;12.17;10.87;;;16.50;99.90;;;;;;4422981;28;659021;-70
2021/07/11 03:13:54;;;;;;;14.27;10.20;;;16.50;99.90;;;;;;4446220;28;659097;-72
2021/07/11 03:16:46;;;;;;;12.37;9.80;;;16.50;99.90;;;;;;4444746;28;659637;-70
2021/07/11 03:19:37;;;;;;;14.57;10.57;;;16.40;99.90;;;;;;4447145;28;657260;-72
2021/07/11 03:22:25;;;;;;;11.57;9.87;;;16.40;99.90;;;;;;4428691;28;659355;-71
2021/07/11 03:25:14;;;;;;;12.07;10.03;;;16.40;99.90;;;;;;4452664;28;657799;-70
2021/07/11 03:28:05;;;;;;;13.67;10.07;;;16.50;99.90;;;;;;4424952;28;659580;-71
2021/07/11 03:30:53;;;;;;;13.57;9.83;;;16.50;99.90;;;;;;4424229;28;658958;-70
2021/07/11 03:33:42;;;;;;;12.03;9.43;;;16.40;99.90;;;;;;4430425;28;658215;-70
2021/07/11 03:36:31;;;;;;;12.10;9.13;;;16.50;99.90;;;;;;4429951;28;657531;-71
2021/07/11 03:39:19;;;;;;;17.70;9.60;;;16.40;99.90;;;;;;4437526;28;657848;-71
2021/07/11 03:42:09;;;;;;;14.23;9.07;;;16.50;99.90;;;;;;4449338;28;659226;-70
2021/07/11 03:44:58;;;;;;;11.77;9.00;;;16.60;99.90;;;;;;4429418;28;658162;-70
2021/07/11 03:47:47;;;;;;;10.13;8.70;;;16.60;99.90;;;;;;4430646;28;657728;-70
2021/07/11 03:50:35;;;;;;;10.77;8.80;;;16.60;99.90;;;;;;4429510;28;657737;-71
2021/07/11 03:53:23;;;;;;;11.43;8.30;;;16.70;99.90;;;;;;4448697;28;658011;-71
2021/07/11 03:56:11;;;;;;;11.70;8.10;;;16.70;99.90;;;;;;4424369;28;659156;-71
2021/07/11 03:59:00;;;;;;;13.47;7.50;;;16.80;99.90;;;;;;4435877;28;657507;-71
2021/07/11 04:01:48;;;;;;;9.13;7.40;;;16.90;99.90;;;;;;4448225;28;658252;-71
2021/07/11 04:04:38;;;;;;;8.90;7.53;;;17.00;99.90;;;;;;4426777;28;657408;-70
2021/07/11 04:07:25;;;;;;;10.47;7.20;;;17.00;99.90;;;;;;4426982;28;656433;-70
2021/07/11 04:10:13;;;;;;;10.97;7.57;;;17.10;99.90;;;;;;4446804;28;658439;-71
2021/07/11 04:13:01;;;;;;;8.67;7.03;;;17.20;99.90;;;;;;4425216;28;658469;-70
2021/07/11 04:15:52;;;;;;;9.17;6.93;;;17.20;99.90;;;;;;4453509;28;655971;-70
2021/07/11 04:18:42;;;;;;;9.93;7.37;;;17.30;99.90;;;;;;4404007;28;657433;-71
2021/07/11 04:21:31;;;;;;;9.37;7.13;;;17.40;99.90;;;;;;4430102;28;657449;-70
2021/07/11 04:24:19;;;;;;;9.93;6.73;;;17.40;99.90;;;;;;4439574;28;656560;-72
2021/07/11 04:27:07;;;;;;;8.90;6.63;;;17.50;99.90;;;;;;4453918;28;657639;-70
2021/07/11 04:29:54;;;;;;;8.87;7.13;;;17.60;99.90;;;;;;4429828;28;656758;-71
2021/07/11 04:32:44;;;;;;;9.53;6.67;;;17.70;99.90;;;;;;4448294;28;657189;-70
2021/07/11 04:35:33;;;;;;;10.63;7.30;;;17.80;99.90;;;;;;4423101;28;656774;-71
2021/07/11 04:38:22;;;;;;;10.43;6.80;;;17.90;99.90;;;;;;4428986;28;657398;-71
2021/07/11 04:41:12;;;;;;;14.23;6.77;;;17.90;99.90;;;;;;4427169;28;657828;-70
2021/07/11 04:44:04;;;;;;;8.40;7.10;;;18.00;99.90;;;;;;4423074;28;657479;-71
2021/07/11 04:46:52;;;;;;;9.87;6.90;;;18.10;99.90;;;;;;4426525;28;656674;-70
2021/07/11 04:49:43;;;;;;;9.60;6.67;;;18.20;99.90;;;;;;4430029;28;657031;-70
2021/07/11 04:52:37;;;;;;;8.60;6.83;;;18.20;99.90;;;;;;4426479;28;657193;-70
2021/07/11 04:55:26;;;;;;;9.67;7.03;;;18.40;99.90;;;;;;4429050;28;657003;-72
2021/07/11 04:58:15;;;;;;;9.40;7.00;;;18.40;99.90;;;;;;4448166;28;656605;-71
2021/07/11 05:01:04;;;;;;;7.67;6.77;;;18.50;99.90;;;;;;4445332;28;656224;-70
2021/07/11 05:03:51;;;;;;;7.67;6.70;;;18.60;99.90;;;;;;4429873;28;657457;-70
2021/07/11 05:06:40;;;;;;;13.20;6.93;;;18.70;99.90;;;;;;4427051;28;656240;-71
2021/07/11 05:09:28;;;;;;;9.73;6.70;;;18.80;99.90;;;;;;4447267;28;657650;-70
2021/07/11 05:12:15;;;;;;;11.87;7.00;;;18.90;99.90;;;;;;4429397;28;656659;-70
2021/07/11 05:15:03;;;;;;;10.73;7.07;;;18.90;99.90;;;;;;4451157;28;657633;-71
2021/07/11 05:17:51;;;;;;;10.57;6.83;;;19.00;99.90;;;;;;4425006;28;657361;-70
2021/07/11 05:20:39;;;;;;;8.07;7.20;;;19.10;99.90;;;;;;4446566;28;657601;-71
2021/07/11 05:23:36;;;;;;;11.20;7.53;;;19.20;99.90;;;;;;4448625;28;656682;-70
2021/07/11 05:26:30;;;;;;;7.83;6.97;;;19.30;99.90;;;;;;4423562;28;657625;-72
2021/07/11 05:29:20;;;;;;;10.07;7.43;;;19.40;99.90;;;;;;4424470;28;657354;-70
2021/07/11 05:32:12;;;;;;;10.47;7.17;;;19.50;99.90;;;;;;4423919;28;658277;-70
2021/07/11 05:35:01;;;;;;;7.90;7.10;;;19.50;99.90;;;;;;4418198;28;657241;-71
2021/07/11 05:37:53;;;;;;;9.90;7.40;;;19.70;99.90;;;;;;4448750;28;656063;-70
2021/07/11 05:40:45;;;;;;;9.20;7.63;;;19.70;99.90;;;;;;4427299;28;656462;-71
2021/07/11 05:43:37;;;;;;;10.33;7.10;;;19.70;99.90;;;;;;4426095;28;656535;-70
2021/07/11 05:46:26;;;;;;;10.30;7.43;;;19.80;99.90;;;;;;4405227;28;658266;-71
2021/07/11 05:49:15;;;;;;;8.50;7.60;;;20.00;99.90;;;;;;4443838;28;657619;-72
2021/07/11 05:52:03;;;;;;;10.47;7.70;;;20.00;99.90;;;;;;4449904;28;656700;-70
2021/07/11 05:54:51;;;;;;;11.97;7.70;;;20.20;99.90;;;;;;4423796;28;658392;-70
2021/07/11 05:57:40;;;;;;;10.27;7.90;;;20.10;99.90;;;;;;4446554;28;657560;-70
2021/07/11 06:00:27;;;;;;;9.23;7.20;;;20.10;99.90;;;;;;4427621;28;658383;-70
2021/07/11 06:03:15;;;;;;;8.17;6.97;;;20.10;99.90;;;;;;4428385;28;656534;-70
2021/07/11 06:06:10;;;;;;;12.23;7.60;;;20.40;99.90;;;;;;4451576;28;658066;-70
2021/07/11 06:09:00;;;;;;;11.97;7.13;;;20.50;99.90;;;;;;4425327;28;658359;-70
2021/07/11 06:11:47;;;;;;;12.47;7.47;;;20.80;99.90;;;;;;4427777;28;658465;-70
2021/07/11 06:14:36;;;;;;;8.80;7.27;;;21.00;99.90;;;;;;4430396;28;658214;-70
2021/07/11 06:17:24;;;;;;;8.13;7.00;;;21.20;99.90;;;;;;4430779;28;656505;-71
2021/07/11 06:20:12;;;;;;;9.63;7.20;;;21.30;99.90;;;;;;4450669;28;657400;-69
2021/07/11 06:23:00;;;;;;;8.45;6.88;;;21.50;99.90;;;;;;4429974;28;656504;-70
2021/07/11 06:25:47;;;;;;;12.23;6.77;;;21.60;99.90;;;;;;4450119;28;657182;-69
2021/07/11 06:28:35;;;;;;;9.63;6.90;;;21.70;99.90;;;;;;4431460;28;657764;-69
2021/07/11 06:31:24;;;;;;;10.73;6.63;;;21.80;99.90;;;;;;4450050;28;657013;-70
2021/07/11 06:34:12;;;;;;;10.87;6.57;;;21.80;99.90;;;;;;4426235;28;658319;-69
2021/07/11 06:36:59;;;;;;;7.17;6.30;;;21.80;99.90;;;;;;4427395;28;657782;-69
2021/07/11 06:39:47;;;;;;;13.43;6.73;;;21.80;99.90;;;;;;4454876;28;656794;-69
2021/07/11 06:42:34;;;;;;;9.63;6.47;;;21.90;99.90;;;;;;4430799;28;658027;-69
2021/07/11 06:45:22;;;;;;;12.00;6.73;;;22.00;99.90;;;;;;4455575;28;657483;-70
2021/07/11 06:48:11;;;;;;;6.97;6.27;;;22.10;99.90;;;;;;4430422;28;657773;-69
2021/07/11 06:50:58;;;;;;;7.47;6.73;;;22.20;99.90;;;;;;4450357;28;657047;-70
2021/07/11 06:53:46;;;;;;;7.47;6.17;;;22.30;99.90;;;;;;4427805;28;657242;-69
2021/07/11 06:56:33;;;;;;;7.97;6.90;;;22.20;99.90;;;;;;4454462;28;656242;-70
2021/07/11 06:59:21;;;;;;;12.77;6.23;;;22.30;99.90;;;;;;4427597;28;657598;-69
2021/07/11 07:02:09;;;;;;;9.27;6.47;;;22.40;99.90;;;;;;4443162;28;658191;-68
2021/07/11 07:04:58;;;;;;;10.80;6.50;;;22.50;99.90;;;;;;4454280;28;657329;-69
2021/07/11 07:07:46;;;;;;;7.00;6.20;;;22.50;99.90;;;;;;4424139;28;658713;-69
2021/07/11 07:10:33;;;;;;;8.33;6.33;;;22.50;99.90;;;;;;4450741;28;656229;-70
2021/07/11 07:13:22;;;;;;;8.80;6.27;;;22.50;99.90;;;;;;4414976;28;657813;-70
2021/07/11 07:16:10;;;;;;;7.27;6.03;;;22.80;99.90;;;;;;4414425;28;656913;-70
2021/07/11 07:18:57;;;;;;;7.60;5.87;;;22.90;99.90;;;;;;4432322;28;657896;-69
2021/07/11 07:21:46;;;;;;;9.53;6.07;;;22.90;99.90;;;;;;4425993;28;656436;-69
2021/07/11 07:24:34;;;;;;;9.93;5.33;;;23.10;99.90;;;;;;4413860;28;656987;-69
2021/07/11 07:27:22;;;;;;;5.90;5.30;;;23.30;99.90;;;;;;4436879;28;657008;-69
2021/07/11 07:30:10;;;;;;;8.30;5.03;;;23.40;99.90;;;;;;4413767;28;656734;-69
2021/07/11 07:32:58;;;;;;;6.27;5.00;;;23.50;99.90;;;;;;4435627;28;656294;-70
2021/07/11 07:35:45;;;;;;;7.93;4.87;;;23.60;99.90;;;;;;4406816;28;656645;-70
2021/07/11 07:38:34;;;;;;;5.30;4.80;;;23.70;99.90;;;;;;4430388;28;657024;-69
2021/07/11 07:41:22;;;;;;;7.90;4.90;;;23.90;99.90;;;;;;4409588;28;657544;-69
2021/07/11 07:44:09;;;;;;;5.90;5.07;;;24.10;99.90;;;;;;4413787;28;656642;-69
2021/07/11 07:46:57;;;;;;;5.93;4.47;;;24.10;99.90;;;;;;4435881;28;656767;-69
2021/07/11 07:49:45;;;;;;;6.00;4.70;;;24.20;99.90;;;;;;4411318;28;656460;-69
2021/07/11 07:52:32;;;;;;;7.27;5.17;;;24.30;99.90;;;;;;4432340;28;656984;-69
2021/07/11 07:55:21;;;;;;;4.90;4.40;;;24.50;99.90;;;;;;4413302;28;657834;-69
2021/07/11 07:58:09;;;;;;;5.07;4.57;;;24.50;99.90;;;;;;4423151;28;657045;-69
2021/07/11 08:00:56;;;;;;;6.23;4.60;;;24.80;99.90;;;;;;4443759;28;657568;-70
2021/07/11 08:03:44;;;;;;;6.47;4.20;;;25.00;99.90;;;;;;4413389;28;657256;-69
2021/07/11 08:06:32;;;;;;;6.00;4.50;;;25.10;99.90;;;;;;4436424;28;657087;-69
2021/07/11 08:09:19;;;;;;;7.00;5.05;;;25.10;99.90;;;;;;4413123;28;656339;-69
2021/07/11 08:12:09;;;;;;;6.80;4.90;;;25.30;99.90;;;;;;4432704;28;657341;-69
2021/07/11 08:14:56;;;;;;;7.05;4.70;;;25.30;99.90;;;;;;4426802;28;657638;-69
2021/07/11 08:17:45;;;;;;;5.82;4.68;;;25.50;99.90;;;;;;4433296;28;656542;-69
2021/07/11 08:20:32;;;;;;;4.97;4.47;;;25.70;99.90;;;;;;4449596;28;657256;-70
2021/07/11 08:23:20;;;;;;;7.72;4.45;;;25.80;99.90;;;;;;4420715;28;656406;-69
2021/07/11 08:26:07;;;;;;;7.75;4.45;;;26.00;99.90;;;;;;4446243;28;658095;-70
2021/07/11 08:28:56;;;;;;;8.02;4.35;;;26.00;99.90;;;;;;4431081;28;656664;-70
2021/07/11 08:31:45;;;;;;;7.85;4.50;;;26.20;99.90;;;;;;4432475;28;656680;-69
2021/07/11 08:34:33;;;;;;;4.85;4.32;;;26.40;99.90;;;;;;4448524;28;657840;-70
2021/07/11 08:37:20;;;;;;;6.30;4.10;;;26.70;99.90;;;;;;4424542;28;656598;-70
2021/07/11 08:40:09;;;;;;;7.32;5.10;;;26.90;99.90;;;;;;4449031;28;657180;-71
2021/07/11 08:42:56;;;;;;;7.00;4.70;;;26.80;99.90;;;;;;4425326;28;657558;-71
2021/07/11 08:45:45;;;;;;;5.78;4.90;;;26.90;99.90;;;;;;4435003;28;656353;-69
2021/07/11 08:48:33;;;;;;;6.90;4.75;;;26.80;99.90;;;;;;4449287;28;656811;-70
2021/07/11 08:51:21;;;;;;;8.45;4.93;;;27.00;99.90;;;;;;4419417;28;657338;-70
2021/07/11 08:54:08;;;;;;;6.80;4.65;;;27.10;99.90;;;;;;4443271;28;656476;-69
2021/07/11 08:56:59;;;;;;;8.68;5.05;;;27.30;99.90;;;;;;4427404;28;657774;-70
2021/07/11 08:59:47;;;;;;;6.55;4.68;;;27.10;99.90;;;;;;4420160;28;657551;-69
2021/07/11 09:02:36;;;;;;;7.15;4.88;;;27.50;99.90;;;;;;4418599;28;656634;-70
2021/07/11 09:05:25;;;;;;;4.47;4.07;;;27.60;99.90;;;;;;4436785;28;656289;-70
2021/07/11 09:08:14;;;;;;;5.25;4.75;;;28.00;99.90;;;;;;4442190;28;656800;-69
2021/07/11 09:11:02;;;;;;;5.47;4.97;;;28.40;99.90;;;;;;4426207;28;657591;-69
2021/07/11 09:13:51;;;;;;;7.07;4.72;;;28.70;99.90;;;;;;4428838;28;656286;-70
2021/07/11 09:16:45;;;;;;;5.68;4.85;;;28.70;99.90;;;;;;4433346;28;656627;-69
2021/07/11 09:19:35;;;;;;;6.03;4.95;;;28.70;99.90;;;;;;4425312;28;657218;-70
2021/07/11 09:22:23;;;;;;;5.35;4.85;;;28.80;99.90;;;;;;4425496;28;656453;-70
2021/07/11 09:25:14;;;;;;;9.18;4.97;;;29.00;99.90;;;;;;4429176;28;657231;-69
2021/07/11 09:28:11;;;;;;;5.97;4.60;;;29.10;99.90;;;;;;4428199;28;658795;-70
2021/07/11 09:31:03;;;;;;;6.57;4.80;;;29.10;99.90;;;;;;4424599;28;656871;-69
2021/07/11 09:33:55;;;;;;;7.15;5.07;;;29.00;99.90;;;;;;4397957;28;658351;-69
2021/07/11 09:36:44;;;;;;;6.65;4.97;;;28.80;99.90;;;;;;4424539;28;656437;-69
2021/07/11 09:39:32;;;;;;;7.00;5.10;;;28.70;99.90;;;;;;4424831;28;657478;-69
2021/07/11 09:42:30;;;;;;;5.75;5.13;;;28.70;99.90;;;;;;4427550;28;656687;-69
2021/07/11 09:45:18;;;;;;;6.00;5.20;;;28.40;99.90;;;;;;4418749;28;656922;-69
2021/07/11 09:48:07;;;;;;;7.53;5.43;;;28.20;99.90;;;;;;4424205;28;658004;-69
2021/07/11 09:50:55;;;;;;;6.05;5.45;;;28.00;99.90;;;;;;4429007;28;656594;-69
2021/07/11 09:53:44;;;;;;;8.27;5.40;;;28.00;99.90;;;;;;4448247;28;656933;-70
2021/07/11 09:56:33;;;;;;;8.65;5.43;;;27.90;99.90;;;;;;4421531;28;657929;-70
2021/07/11 09:59:20;;;;;;;7.65;5.50;;;27.80;99.90;;;;;;4427681;28;656526;-69
2021/07/11 10:02:08;;;;;;;7.35;5.32;;;27.70;99.90;;;;;;4440716;28;656742;-69
2021/07/11 10:04:55;;;;;;;6.38;5.57;;;28.20;99.90;;;;;;4428287;28;657237;-70
2021/07/11 10:07:43;;;;;;;10.50;5.70;;;28.50;99.90;;;;;;4439791;28;656441;-69
2021/07/11 10:10:34;;;;;;;10.73;5.60;;;28.60;99.90;;;;;;4418055;28;658628;-70
2021/07/11 10:13:21;;;;;;;7.97;5.68;;;28.50;99.90;;;;;;4422951;28;658261;-70
2021/07/11 10:16:09;;;;;;;7.15;5.47;;;28.90;99.90;;;;;;4431414;28;656616;-70
2021/07/11 10:18:58;;;;;;;7.22;5.28;;;29.50;99.90;;;;;;4447766;28;656953;-70
2021/07/11 10:21:47;;;;;;;6.88;5.45;;;29.90;99.90;;;;;;4426272;28;656427;-69
2021/07/11 10:24:40;;;;;;;6.15;5.43;;;30.20;99.90;;;;;;4428644;28;656570;-69
2021/07/11 10:27:29;;;;;;;10.90;5.85;;;30.10;99.90;;;;;;4417392;28;656468;-70
2021/07/11 10:30:17;;;;;;;7.90;5.40;;;30.10;99.90;;;;;;4422719;28;658293;-70
2021/07/11 10:33:09;;;;;;;6.45;5.70;;;29.90;99.90;;;;;;4428138;28;657808;-69
2021/07/11 10:35:59;;;;;;;8.15;5.90;;;30.00;99.90;;;;;;4424924;28;657745;-69
2021/07/11 10:38:51;;;;;;;7.97;5.57;;;30.20;99.90;;;;;;4428696;28;656676;-69
2021/07/11 10:41:47;;;;;;;7.47;5.72;;;30.20;99.90;;;;;;4410407;28;656366;-69
2021/07/11 10:44:36;;;;;;;5.80;5.20;;;30.10;99.90;;;;;;4421550;28;656656;-69
2021/07/11 10:47:24;;;;;;;10.82;5.50;;;30.00;99.90;;;;;;4421348;28;656477;-69
2021/07/11 10:50:28;;;;;;;7.63;5.40;;;30.00;99.90;;;;;;4452458;28;658462;-69
2021/07/11 10:53:18;;;;;;;6.60;5.10;;;30.50;99.90;;;;;;4393384;28;657305;-69
2021/07/11 10:56:06;;;;;;;5.47;4.85;;;31.00;99.90;;;;;;4428564;28;656563;-69
2021/07/11 10:58:54;;;;;;;6.85;4.95;;;31.10;99.90;;;;;;4427250;28;657834;-69
2021/07/11 11:01:44;;;;;;;5.70;5.10;;;31.10;99.90;;;;;;4450381;28;658346;-69
2021/07/11 11:04:32;;;;;;;8.43;5.43;;;30.80;99.90;;;;;;4427030;28;657106;-69
2021/07/11 11:07:25;;;;;;;6.32;5.07;;;30.80;99.90;;;;;;4428418;28;656698;-69
2021/07/11 11:10:37;;;;;;;6.03;4.90;;;31.10;99.90;;;;;;4425952;28;656624;-69
2021/07/11 11:13:27;;;;;;;7.00;5.20;;;31.00;99.90;;;;;;4340807;28;656652;-69
2021/07/11 11:16:16;;;;;;;6.47;5.47;;;30.40;99.90;;;;;;4341955;28;656704;-69
2021/07/11 11:19:05;;;;;;;7.05;5.22;;;30.40;99.90;;;;;;4353936;28;656988;-69
2021/07/11 11:21:56;;;;;;;8.07;5.38;;;30.40;99.90;;;;;;4338230;28;657281;-69
2021/07/11 11:24:43;;;;;;;7.03;5.38;;;30.60;99.90;;;;;;4338605;28;657220;-70
2021/07/11 11:27:32;;;;;;;8.68;5.28;;;30.30;99.90;;;;;;4338243;28;657852;-69
2021/07/11 11:30:23;;;;;;;13.98;5.90;;;29.80;99.90;;;;;;4342608;28;656722;-69
2021/07/11 11:33:10;;;;;;;8.13;6.00;;;29.10;99.90;;;;;;4340792;28;658156;-69
2021/07/11 11:35:59;;;;;;;9.93;5.82;;;28.50;99.90;;;;;;4354139;28;657062;-69
2021/07/11 11:38:47;;;;;;;8.25;6.10;;;28.20;99.90;;;;;;4350650;28;657473;-70
2021/07/11 11:41:35;;;;;;;7.90;6.55;;;27.70;99.90;;;;;;4354341;28;657196;-69
2021/07/11 11:44:23;;;;;;;10.55;6.07;;;27.40;99.90;;;;;;4357302;28;656425;-69
2021/07/11 11:47:11;;;;;;;12.55;6.00;;;27.20;99.90;;;;;;4336625;28;658129;-69
2021/07/11 11:49:59;;;;;;;9.98;6.47;;;27.20;99.90;;;;;;4350193;28;657667;-69
2021/07/11 11:52:48;;;;;;;7.80;6.00;;;27.00;99.90;;;;;;4375756;28;657575;-69
2021/07/11 11:55:36;;;;;;;7.32;6.40;;;26.90;99.90;;;;;;4423453;28;657304;-69
2021/07/11 11:58:25;;;;;;;8.27;6.20;;;26.80;99.90;;;;;;4434192;28;656294;-69
2021/07/11 12:01:14;;;;;;;12.57;6.00;;;26.80;99.90;;;;;;4448272;28;656222;-69
2021/07/11 12:04:09;;;;;;;9.55;6.32;;;26.80;99.90;;;;;;4421575;28;657968;-69
2021/07/11 12:06:58;;;;;;;8.13;6.22;;;26.80;99.90;;;;;;4419798;28;657113;-69
2021/07/11 12:09:47;;;;;;;7.03;6.32;;;26.70;99.90;;;;;;4427261;28;656359;-69
2021/07/11 12:12:34;;;;;;;10.52;6.15;;;26.80;99.90;;;;;;4425437;28;656645;-69
2021/07/11 12:15:32;;;;;;;8.25;6.57;;;26.80;99.90;;;;;;4447772;28;658232;-69
2021/07/11 12:18:20;;;;;;;7.20;6.50;;;26.80;99.90;;;;;;4407427;28;656779;-69
2021/07/11 12:21:07;;;;;;;9.73;5.55;;;26.80;99.90;;;;;;4449388;28;657464;-69
2021/07/11 12:24:00;;;;;;;7.68;5.53;;;26.70;99.90;;;;;;4447589;28;657126;-69
2021/07/11 12:26:50;;;;;;;8.15;6.28;;;26.50;99.90;;;;;;4442156;28;657408;-69
2021/07/11 12:29:39;;;;;;;6.68;5.40;;;26.40;99.90;;;;;;4438650;28;657164;-69
2021/07/11 12:32:27;;;;;;;9.27;5.88;;;26.40;99.90;;;;;;4443477;28;656975;-69
2021/07/11 12:35:15;;;;;;;11.05;6.20;;;26.20;99.90;;;;;;4442340;28;656439;-69
2021/07/11 12:38:04;;;;;;;10.43;6.00;;;26.00;99.90;;;;;;4462858;28;657721;-70
2021/07/11 12:40:56;;;;;;;6.50;5.82;;;25.90;99.90;;;;;;4441744;27;658225;-69
2021/07/11 12:43:49;;;;;;;6.63;5.93;;;25.70;99.90;;;;;;4432626;28;656737;-68
2021/07/11 12:46:37;;;;;;;11.38;6.65;;;25.10;99.90;;;;;;4436310;28;657466;-69
2021/07/11 12:49:24;;;;;;;8.98;6.30;;;24.60;99.90;;;;;;4442642;28;658392;-69
2021/07/11 12:52:14;;;;;;;8.88;6.25;;;24.20;99.90;;;;;;4466426;28;656768;-69
2021/07/11 12:55:11;;;;;;;8.65;6.53;;;24.00;99.90;;;;;;4443651;28;657271;-71
2021/07/11 12:58:08;;;;;;;9.68;6.90;;;24.10;99.90;;;;;;4458861;28;656424;-69
2021/07/11 13:01:04;;;;;;;11.68;6.70;;;24.40;99.90;;;;;;4446349;28;656841;-69
2021/07/11 13:03:57;;;;;;;12.90;6.75;;;24.70;99.90;;;;;;4440942;28;657881;-70
2021/07/11 13:06:44;;;;;;;11.23;7.18;;;24.80;99.90;;;;;;4418228;28;658218;-69
2021/07/11 13:09:32;;;;;;;9.35;6.80;;;24.80;99.90;;;;;;4464156;28;658504;-69
2021/07/11 13:12:20;;;;;;;9.38;6.90;;;24.70;99.90;;;;;;4438266;28;656534;-69
2021/07/11 13:15:09;;;;;;;10.05;6.65;;;24.20;99.90;;;;;;4457573;27;656960;-69
2021/07/11 13:17:58;;;;;;;8.60;6.80;;;23.90;99.90;;;;;;4425424;28;659224;-69
2021/07/11 13:20:46;;;;;;;10.03;6.63;;;23.80;99.90;;;;;;4431415;28;657263;-69
2021/07/11 13:23:33;;;;;;;8.23;7.37;;;23.70;99.90;;;;;;4456333;28;657382;-69
2021/07/11 13:26:21;;;;;;;9.07;7.37;;;23.70;99.90;;;;;;4447026;28;656903;-69
2021/07/11 13:29:09;;;;;;;15.80;7.23;;;23.70;99.90;;;;;;4457961;28;656797;-68
2021/07/11 13:31:57;;;;;;;10.50;7.40;;;23.80;99.90;;;;;;4456841;28;659010;-70
2021/07/11 13:34:46;;;;;;;9.10;7.50;;;23.80;99.90;;;;;;4445139;28;658043;-69
2021/07/11 13:37:35;;;;;;;8.43;7.13;;;23.70;99.90;;;;;;4442677;28;656386;-69
2021/07/11 13:40:22;;;;;;;12.33;7.70;;;23.70;99.90;;;;;;4465032;28;656880;-71
2021/07/11 13:43:10;;;;;;;14.27;7.43;;;23.60;99.90;;;;;;4445201;28;657587;-69
2021/07/11 13:45:58;;;;;;;11.27;7.47;;;23.40;99.90;;;;;;4457090;28;657736;-69
2021/07/11 13:48:45;;;;;;;9.13;8.20;;;23.10;99.90;;;;;;4443692;28;657973;-70
2021/07/11 13:51:34;;;;;;;10.00;7.87;;;23.10;99.90;;;;;;4464375;28;656476;-69
2021/07/11 13:54:22;;;;;;;14.33;8.77;;;22.90;99.90;;;;;;4440712;28;657945;-70
2021/07/11 13:57:10;;;;;;;12.90;9.17;;;22.90;99.90;;;;;;4445584;28;657851;-70
2021/07/11 13:59:58;;;;;;;9.60;8.53;;;22.90;99.90;;;;;;4465053;28;658450;-70
2021/07/11 14:02:46;;;;;;;12.03;8.40;;;22.70;99.90;;;;;;4440627;28;657655;-69
2021/07/11 14:05:33;;;;;;;14.27;9.23;;;22.60;99.90;;;;;;4462432;28;657683;-70
2021/07/11 14:08:23;;;;;;;10.23;8.60;;;22.50;99.90;;;;;;4444941;28;658941;-69
2021/07/11 14:11:10;;;;;;;13.80;9.53;;;22.30;99.90;;;;;;4439975;28;658068;-70
2021/07/11 14:13:58;;;;;;;16.90;10.53;;;22.30;99.90;;;;;;4463057;28;658540;-70
2021/07/11 14:16:45;;;;;;;12.03;10.00;;;22.20;99.90;;;;;;4442170;28;658838;-70
2021/07/11 14:19:33;;;;;;;11.43;10.23;;;22.30;99.90;;;;;;4428676;28;658727;-70
2021/07/11 14:22:20;;;;;;;12.23;10.00;;;22.30;99.90;;;;;;4410136;28;658923;-70